createdAt,value
2018-02-18T00:01:59.536Z,4.14
2018-02-18T00:04:30.885Z,4.14
2018-02-18T00:07:01.161Z,4.16
2018-02-18T00:09:32.105Z,4.15
2018-02-18T00:12:02.372Z,4.16
2018-02-18T00:17:36.956Z,4.15
2018-02-18T00:20:05.931Z,4.14
2018-02-18T00:22:34.734Z,4.12
2018-02-18T00:25:03.787Z,4.11
2018-02-18T00:27:32.721Z,4.09
2018-02-18T00:30:01.602Z,4.10
2018-02-18T00:32:30.431Z,3.93
2018-02-18T00:34:59.511Z,3.92
2018-02-18T00:37:28.582Z,3.91
2018-02-18T00:39:57.644Z,3.95
2018-02-18T00:42:26.939Z,4.01
2018-02-18T00:44:56.143Z,4.03
2018-02-18T00:47:25.152Z,4.06
2018-02-18T00:49:54.226Z,4.10
2018-02-18T00:52:23.259Z,4.09
2018-02-18T00:54:52.397Z,4.12
2018-02-18T00:57:21.820Z,4.15
2018-02-18T00:59:50.898Z,4.19
2018-02-18T01:02:21.624Z,4.21
2018-02-18T01:04:52.138Z,4.24
2018-02-18T01:07:22.931Z,4.24
2018-02-18T01:09:53.804Z,4.21
2018-02-18T01:12:24.714Z,4.23
2018-02-18T01:14:55.571Z,4.24
2018-02-18T01:17:26.508Z,4.08
2018-02-18T01:19:57.854Z,4.09
2018-02-18T01:22:28.383Z,4.05
2018-02-18T01:24:58.881Z,3.89
2018-02-18T01:27:29.384Z,3.80
2018-02-18T01:30:00.100Z,3.84
2018-02-18T01:32:31.034Z,3.80
2018-02-18T01:35:01.748Z,3.61
2018-02-18T01:37:32.656Z,3.71
2018-02-18T01:40:03.513Z,3.55
2018-02-18T01:42:36.135Z,3.38
2018-02-18T01:45:06.423Z,3.37
2018-02-18T01:47:36.950Z,3.23
2018-02-18T01:50:18.734Z,3.16
2018-02-18T01:52:47.988Z,3.28
2018-02-18T01:55:17.299Z,3.39
2018-02-18T01:57:46.392Z,3.30
2018-02-18T02:00:15.534Z,3.34
2018-02-18T02:02:44.630Z,3.44
2018-02-18T02:05:13.800Z,3.44
2018-02-18T02:07:44.410Z,3.28
2018-02-18T02:10:14.803Z,3.30
2018-02-18T02:12:45.311Z,3.24
2018-02-18T02:15:15.884Z,3.22
2018-02-18T02:17:46.765Z,3.20
2018-02-18T02:20:17.600Z,3.21
2018-02-18T02:22:48.139Z,3.14
2018-02-18T02:25:18.776Z,3.24
2018-02-18T02:27:49.936Z,3.18
2018-02-18T02:30:20.759Z,3.12
2018-02-18T02:32:52.052Z,3.02
2018-02-18T02:35:22.556Z,3.06
2018-02-18T02:37:52.784Z,3.21
2018-02-18T02:40:23.353Z,3.22
2018-02-18T02:42:54.936Z,3.10
2018-02-18T02:45:25.759Z,3.19
2018-02-18T02:47:56.651Z,3.29
2018-02-18T02:50:27.115Z,3.34
2018-02-18T02:52:57.194Z,3.35
2018-02-18T02:55:28.651Z,3.14
2018-02-18T02:58:00.040Z,3.23
2018-02-18T03:00:30.889Z,3.31
2018-02-18T03:03:01.772Z,3.33
2018-02-18T03:05:32.748Z,3.12
2018-02-18T03:08:03.960Z,2.97
2018-02-18T03:10:34.458Z,2.95
2018-02-18T03:13:04.916Z,2.97
2018-02-18T03:15:35.923Z,2.86
2018-02-18T03:18:06.746Z,2.75
2018-02-18T03:20:37.680Z,2.90
2018-02-18T03:23:08.520Z,3.02
2018-02-18T03:25:40.061Z,3.06
2018-02-18T03:28:10.886Z,2.99
2018-02-18T03:30:41.760Z,2.86
2018-02-18T03:33:12.559Z,2.78
2018-02-18T03:35:43.888Z,2.78
2018-02-18T03:38:14.688Z,2.78
2018-02-18T03:40:45.561Z,2.77
2018-02-18T03:43:16.436Z,2.84
2018-02-18T03:45:54.348Z,2.89
2018-02-18T03:48:23.421Z,2.91
2018-02-18T03:50:52.539Z,2.94
2018-02-18T03:53:21.595Z,2.91
2018-02-18T03:55:52.024Z,2.99
2018-02-18T03:58:22.931Z,3.01
2018-02-18T04:00:53.704Z,3.06
2018-02-18T04:03:24.574Z,3.10
2018-02-18T04:05:55.457Z,3.08
2018-02-18T04:08:25.867Z,3.10
2018-02-18T04:10:56.694Z,3.04
2018-02-18T04:13:27.270Z,2.97
2018-02-18T04:15:57.892Z,3.02
2018-02-18T04:18:28.756Z,2.97
2018-02-18T04:20:59.584Z,2.99
2018-02-18T04:23:29.925Z,2.85
2018-02-18T04:26:00.832Z,3.00
2018-02-18T04:28:31.746Z,3.00
2018-02-18T04:31:02.572Z,3.03
2018-02-18T04:33:33.936Z,3.07
2018-02-18T04:36:04.759Z,3.04
2018-02-18T04:38:35.641Z,3.10
2018-02-18T04:41:06.479Z,3.16
2018-02-18T04:43:37.879Z,3.14
2018-02-18T04:46:08.672Z,3.00
2018-02-18T04:48:39.548Z,2.88
2018-02-18T04:51:10.756Z,2.89
2018-02-18T04:53:41.651Z,2.89
2018-02-18T04:56:12.828Z,2.98
2018-02-18T04:58:43.648Z,2.99
2018-02-18T05:01:14.839Z,3.02
2018-02-18T05:03:45.702Z,2.98
2018-02-18T05:06:16.520Z,3.00
2018-02-18T05:08:47.800Z,2.94
2018-02-18T05:11:18.236Z,3.01
2018-02-18T05:13:48.888Z,2.94
2018-02-18T05:16:19.372Z,2.93
2018-02-18T05:18:49.907Z,2.88
2018-02-18T05:21:20.725Z,2.96
2018-02-18T05:23:51.716Z,3.03
2018-02-18T05:26:22.204Z,3.07
2018-02-18T05:28:52.851Z,2.98
2018-02-18T05:31:23.642Z,2.85
2018-02-18T05:33:54.580Z,2.81
2018-02-18T05:36:25.462Z,2.93
2018-02-18T05:38:56.098Z,2.97
2018-02-18T05:41:26.790Z,3.00
2018-02-18T05:43:57.787Z,2.89
2018-02-18T05:46:28.244Z,2.88
2018-02-18T05:49:00.854Z,2.84
2018-02-18T05:51:30.448Z,2.84
2018-02-18T05:54:00.248Z,2.83
2018-02-18T05:56:30.874Z,2.87
2018-02-18T05:59:01.727Z,2.84
2018-02-18T06:01:32.532Z,2.81
2018-02-18T06:04:03.887Z,2.80
2018-02-18T06:06:34.731Z,2.87
2018-02-18T06:09:04.693Z,2.88
2018-02-18T06:11:35.535Z,2.91
2018-02-18T06:14:06.907Z,2.95
2018-02-18T06:16:37.724Z,2.81
2018-02-18T06:19:08.918Z,2.84
2018-02-18T06:21:39.428Z,2.83
2018-02-18T06:24:09.929Z,2.87
2018-02-18T06:26:40.814Z,2.68
2018-02-18T06:29:11.772Z,2.51
2018-02-18T06:31:42.581Z,2.40
2018-02-18T06:34:13.536Z,2.48
2018-02-18T06:36:44.790Z,2.47
2018-02-18T06:39:15.689Z,2.40
2018-02-18T06:41:46.515Z,2.47
2018-02-18T06:44:17.888Z,2.51
2018-02-18T06:46:48.701Z,2.35
2018-02-18T06:49:19.671Z,2.29
2018-02-18T06:51:50.609Z,2.40
2018-02-18T06:54:21.551Z,2.50
2018-02-18T06:56:51.877Z,2.42
2018-02-18T06:59:22.764Z,2.41
2018-02-18T07:01:53.588Z,2.50
2018-02-18T07:04:24.542Z,2.56
2018-02-18T07:06:55.784Z,2.58
2018-02-18T07:09:26.675Z,2.48
2018-02-18T07:11:57.511Z,2.55
2018-02-18T07:14:28.895Z,2.57
2018-02-18T07:16:59.724Z,2.63
2018-02-18T07:19:30.596Z,2.50
2018-02-18T07:22:01.883Z,2.58
2018-02-18T07:24:33.427Z,2.62
2018-02-18T07:27:02.964Z,2.74
2018-02-18T07:29:33.704Z,2.78
2018-02-18T07:32:04.592Z,2.80
2018-02-18T07:34:35.084Z,2.58
2018-02-18T07:37:05.795Z,2.68
2018-02-18T07:39:36.699Z,2.71
2018-02-18T07:42:07.540Z,2.71
2018-02-18T07:44:38.860Z,2.64
2018-02-18T07:47:09.750Z,2.66
2018-02-18T07:49:41.101Z,2.77
2018-02-18T07:52:11.900Z,2.74
2018-02-18T07:54:42.891Z,2.43
2018-02-18T07:57:13.763Z,2.17
2018-02-18T07:59:44.676Z,2.29
2018-02-18T08:02:15.560Z,2.38
2018-02-18T08:04:46.011Z,2.57
2018-02-18T08:07:16.766Z,2.62
2018-02-18T08:09:47.660Z,2.83
2018-02-18T08:12:18.504Z,2.78
2018-02-18T08:14:49.888Z,2.77
2018-02-18T08:17:20.767Z,2.84
2018-02-18T08:19:51.691Z,2.63
2018-02-18T08:22:22.564Z,2.45
2018-02-18T08:24:53.908Z,2.57
2018-02-18T08:27:24.880Z,2.64
2018-02-18T08:29:55.792Z,2.78
2018-02-18T08:32:26.613Z,2.85
2018-02-18T08:34:57.967Z,2.70
2018-02-18T08:37:28.803Z,2.84
2018-02-18T08:39:59.715Z,2.93
2018-02-18T08:42:30.584Z,2.74
2018-02-18T08:45:01.913Z,2.68
2018-02-18T08:47:32.394Z,2.68
2018-02-18T08:50:02.974Z,2.76
2018-02-18T08:52:33.810Z,2.76
2018-02-18T08:55:04.699Z,2.65
2018-02-18T08:57:36.050Z,2.44
2018-02-18T09:00:06.861Z,2.62
2018-02-18T09:02:37.700Z,2.61
2018-02-18T09:05:08.631Z,2.80
2018-02-18T09:07:39.612Z,2.88
2018-02-18T09:10:10.580Z,2.87
2018-02-18T09:12:41.811Z,2.80
2018-02-18T09:15:12.722Z,2.96
2018-02-18T09:17:43.189Z,3.11
2018-02-18T09:20:13.869Z,3.20
2018-02-18T09:22:44.705Z,3.27
2018-02-18T09:25:15.595Z,3.34
2018-02-18T09:27:46.942Z,3.44
2018-02-18T09:30:17.565Z,3.53
2018-02-18T09:32:47.863Z,3.62
2018-02-18T09:35:18.858Z,3.69
2018-02-18T09:37:49.724Z,3.71
2018-02-18T09:40:20.325Z,3.73
2018-02-18T09:42:51.471Z,3.75
2018-02-18T09:45:22.968Z,3.78
2018-02-18T09:47:54.718Z,3.89
2018-02-18T09:50:25.261Z,3.85
2018-02-18T09:52:55.887Z,3.92
2018-02-18T09:55:27.907Z,3.79
2018-02-18T09:57:58.383Z,3.60
2018-02-18T10:00:28.864Z,3.63
2018-02-18T10:02:59.716Z,3.78
2018-02-18T10:05:30.658Z,3.81
2018-02-18T10:08:01.354Z,3.62
2018-02-18T10:10:31.988Z,3.67
2018-02-18T10:13:02.503Z,3.60
2018-02-18T10:15:32.991Z,3.45
2018-02-18T10:18:03.845Z,3.56
2018-02-18T10:20:34.852Z,3.60
2018-02-18T10:23:05.332Z,3.19
2018-02-18T10:25:36.065Z,3.48
2018-02-18T10:28:06.849Z,3.53
2018-02-18T10:30:37.765Z,3.35
2018-02-18T10:33:08.594Z,3.61
2018-02-18T10:35:40.000Z,3.88
2018-02-18T10:38:10.785Z,3.81
2018-02-18T10:40:41.635Z,3.69
2018-02-18T10:43:12.541Z,3.77
2018-02-18T10:45:43.831Z,4.01
2018-02-18T10:48:14.681Z,4.01
2018-02-18T10:50:46.220Z,4.15
2018-02-18T10:53:17.380Z,4.30
2018-02-18T10:55:48.122Z,4.41
2018-02-18T10:58:18.561Z,4.51
2018-02-18T11:00:48.914Z,4.44
2018-02-18T11:03:19.721Z,4.18
2018-02-18T11:05:50.659Z,4.21
2018-02-18T11:08:21.625Z,4.33
2018-02-18T11:10:52.496Z,4.44
2018-02-18T11:13:23.835Z,4.46
2018-02-18T11:15:54.737Z,4.46
2018-02-18T11:18:26.951Z,4.29
2018-02-18T11:20:57.551Z,4.40
2018-02-18T11:23:27.891Z,4.53
2018-02-18T11:25:58.804Z,4.63
2018-02-18T11:28:29.637Z,4.68
2018-02-18T11:31:00.601Z,4.76
2018-02-18T11:33:31.806Z,4.80
2018-02-18T11:36:02.676Z,4.87
2018-02-18T11:38:33.497Z,4.96
2018-02-18T11:41:03.938Z,4.94
2018-02-18T11:43:34.784Z,4.60
2018-02-18T11:46:05.727Z,4.72
2018-02-18T11:48:37.301Z,4.57
2018-02-18T11:51:07.942Z,4.74
2018-02-18T11:53:38.784Z,4.43
2018-02-18T11:56:09.675Z,4.35
2018-02-18T11:58:40.568Z,4.61
2018-02-18T12:01:12.236Z,4.81
2018-02-18T12:04:01.027Z,4.93
2018-02-18T12:06:29.959Z,4.82
2018-02-18T12:08:59.160Z,4.96
2018-02-18T12:11:28.236Z,4.86
2018-02-18T12:13:57.381Z,5.01
2018-02-18T12:16:26.482Z,4.98
2018-02-18T12:18:55.600Z,4.99
2018-02-18T12:21:24.763Z,5.08
2018-02-18T12:24:10.191Z,5.00
2018-02-18T12:26:39.185Z,5.08
2018-02-18T12:29:08.496Z,5.13
2018-02-18T12:31:37.603Z,5.00
2018-02-18T12:34:06.742Z,5.20
2018-02-18T12:36:35.882Z,5.21
2018-02-18T12:39:04.334Z,5.28
2018-02-18T12:41:33.555Z,5.30
2018-02-18T12:44:02.633Z,5.10
2018-02-18T12:46:31.918Z,5.11
2018-02-18T12:49:01.084Z,5.09
2018-02-18T12:51:30.608Z,5.25
2018-02-18T12:54:01.218Z,5.38
2018-02-18T12:56:30.310Z,5.52
2018-02-18T12:58:59.123Z,5.52
2018-02-18T13:01:28.108Z,5.94
2018-02-18T13:03:57.193Z,6.48
2018-02-18T13:06:26.196Z,6.90
2018-02-18T13:08:55.338Z,7.43
2018-02-18T13:11:24.780Z,7.77
2018-02-18T13:13:53.902Z,7.93
2018-02-18T13:16:22.780Z,8.25
2018-02-18T13:18:51.577Z,8.61
2018-02-18T13:21:20.490Z,8.86
2018-02-18T13:23:49.421Z,9.15
2018-02-18T13:26:18.396Z,9.30
2018-02-18T13:28:47.219Z,8.74
2018-02-18T13:31:16.362Z,8.83
2018-02-18T13:33:45.433Z,8.66
2018-02-18T13:36:14.544Z,9.01
2018-02-18T13:38:43.772Z,9.25
2018-02-18T13:41:12.895Z,9.14
2018-02-18T13:43:42.828Z,9.47
2018-02-18T13:46:12.049Z,9.26
2018-02-18T13:48:41.251Z,9.57
2018-02-18T13:51:10.416Z,9.76
2018-02-18T13:53:41.173Z,9.88
2018-02-18T13:56:10.397Z,10.06
2018-02-18T13:58:39.563Z,9.92
2018-02-18T14:01:08.708Z,10.10
2018-02-18T14:03:38.783Z,10.24
2018-02-18T14:06:09.484Z,10.08
2018-02-18T14:08:38.634Z,9.59
2018-02-18T14:11:09.080Z,9.94
2018-02-18T14:13:41.235Z,10.10
2018-02-18T14:16:10.964Z,10.24
2018-02-18T14:18:40.157Z,10.32
2018-02-18T14:21:09.270Z,10.52
2018-02-18T14:23:38.079Z,10.64
2018-02-18T14:26:07.060Z,10.73
2018-02-18T14:28:35.856Z,10.83
2018-02-18T14:31:04.857Z,10.88
2018-02-18T14:33:34.248Z,10.97
2018-02-18T14:36:04.215Z,11.02
2018-02-18T14:38:33.318Z,10.96
2018-02-18T14:41:02.725Z,10.93
2018-02-18T14:43:44.517Z,10.93
2018-02-18T14:46:26.347Z,10.92
2018-02-18T14:49:06.456Z,10.86
2018-02-18T14:51:47.612Z,10.87
2018-02-18T14:54:30.614Z,10.78
2018-02-18T14:57:07.640Z,10.76
2018-02-18T14:59:36.467Z,10.76
2018-02-18T15:02:05.311Z,10.73
2018-02-18T15:04:34.186Z,10.69
2018-02-18T15:07:03.230Z,10.68
2018-02-18T15:09:32.317Z,10.63
2018-02-18T15:12:01.474Z,10.53
2018-02-18T15:14:30.351Z,10.48
2018-02-18T15:16:59.196Z,10.41
2018-02-18T15:19:28.283Z,10.34
2018-02-18T15:21:57.115Z,10.26
2018-02-18T15:24:26.000Z,10.18
2018-02-18T15:26:54.821Z,10.07
2018-02-18T15:29:23.927Z,9.93
2018-02-18T15:31:52.956Z,9.82
2018-02-18T15:34:21.924Z,9.67
2018-02-18T15:36:51.033Z,9.56
2018-02-18T15:39:19.899Z,9.50
2018-02-18T15:41:49.396Z,9.40
2018-02-18T15:44:18.655Z,9.27
2018-02-18T15:46:47.842Z,9.11
2018-02-18T15:49:17.038Z,8.93
2018-02-18T15:51:46.106Z,8.78
2018-02-18T15:54:15.404Z,8.65
2018-02-18T15:56:44.532Z,8.49
2018-02-18T15:59:13.648Z,8.32
2018-02-18T16:01:43.153Z,8.19
2018-02-18T16:04:12.374Z,8.05
2018-02-18T16:06:41.564Z,7.90
2018-02-18T16:09:12.108Z,7.77
2018-02-18T16:11:42.596Z,7.60
2018-02-18T16:14:12.900Z,7.48
2018-02-18T16:16:43.749Z,7.38
2018-02-18T16:19:14.645Z,7.28
2018-02-18T16:21:45.974Z,7.19
2018-02-18T16:24:16.892Z,7.03
2018-02-18T16:26:47.359Z,6.93
2018-02-18T16:29:17.989Z,6.84
2018-02-18T16:31:52.735Z,6.76
2018-02-18T16:34:22.188Z,6.67
2018-02-18T16:36:51.364Z,6.64
2018-02-18T16:39:20.496Z,6.50
2018-02-18T16:41:50.785Z,6.49
2018-02-18T16:44:21.673Z,6.35
2018-02-18T16:46:52.531Z,6.25
2018-02-18T16:49:23.837Z,6.12
2018-02-18T16:51:54.388Z,6.02
2018-02-18T16:54:25.148Z,5.93
2018-02-18T16:56:56.025Z,5.85
2018-02-18T16:59:27.176Z,5.77
2018-02-18T17:01:58.060Z,5.71
2018-02-18T17:04:28.984Z,5.65
2018-02-18T17:06:59.795Z,5.57
2018-02-18T17:09:30.771Z,5.52
2018-02-18T17:12:01.338Z,5.44
2018-02-18T17:14:32.043Z,5.41
2018-02-18T17:17:02.938Z,5.36
2018-02-18T17:19:33.914Z,5.31
2018-02-18T17:22:04.780Z,5.23
2018-02-18T17:24:35.778Z,5.21
2018-02-18T17:27:06.680Z,5.19
2018-02-18T17:29:38.107Z,5.17
2018-02-18T17:32:08.984Z,5.12
2018-02-18T17:34:39.619Z,5.10
2018-02-18T17:37:10.028Z,5.05
2018-02-18T17:39:40.972Z,5.05
2018-02-18T17:42:11.512Z,5.03
2018-02-18T17:44:43.199Z,4.98
2018-02-18T17:47:13.592Z,4.93
2018-02-18T17:49:44.606Z,4.85
2018-02-18T17:52:15.349Z,4.80
2018-02-18T17:54:46.011Z,4.73
2018-02-18T17:57:16.850Z,4.68
2018-02-18T17:59:48.541Z,4.66
2018-02-18T18:02:19.017Z,4.65
2018-02-18T18:04:49.937Z,4.64
2018-02-18T18:07:25.844Z,4.62
2018-02-18T18:09:55.120Z,4.53
2018-02-18T18:12:24.656Z,4.36
2018-02-18T18:14:53.773Z,4.35
2018-02-18T18:17:25.452Z,4.34
2018-02-18T18:19:55.719Z,4.34
2018-02-18T18:22:26.319Z,4.33
2018-02-18T18:24:57.088Z,4.47
2018-02-18T18:27:28.049Z,4.52
2018-02-18T18:29:58.699Z,4.44
2018-02-18T18:32:29.123Z,4.39
2018-02-18T18:35:00.456Z,4.37
2018-02-18T18:37:31.120Z,4.33
2018-02-18T18:40:00.224Z,4.27
2018-02-18T18:42:31.340Z,4.22
2018-02-18T18:45:02.008Z,4.16
2018-02-18T18:47:33.497Z,4.11
2018-02-18T18:50:05.084Z,4.05
2018-02-18T18:52:35.640Z,4.08
2018-02-18T18:55:06.288Z,4.08
2018-02-18T18:57:37.857Z,4.08
2018-02-18T19:00:08.333Z,4.09
2018-02-18T19:02:39.564Z,4.08
2018-02-18T19:05:10.372Z,4.06
2018-02-18T19:07:41.720Z,4.01
2018-02-18T19:10:13.229Z,4.00
2018-02-18T19:12:44.132Z,4.00
2018-02-18T19:15:14.981Z,4.03
2018-02-18T19:17:45.921Z,3.99
2018-02-18T19:20:16.800Z,4.02
2018-02-18T19:22:48.214Z,3.85
2018-02-18T19:25:19.091Z,3.76
2018-02-18T19:27:50.120Z,3.74
2018-02-18T19:30:20.408Z,3.74
2018-02-18T19:32:51.129Z,3.73
2018-02-18T19:35:22.147Z,3.74
2018-02-18T19:37:53.112Z,3.77
2018-02-18T19:40:23.911Z,3.83
2018-02-18T19:42:54.813Z,3.81
2018-02-18T19:45:25.122Z,3.76
2018-02-18T19:47:55.698Z,3.75
2018-02-18T19:50:26.221Z,3.70
2018-02-18T19:52:57.144Z,3.71
2018-02-18T19:55:27.977Z,3.73
2018-02-18T19:57:58.499Z,3.78
2018-02-18T20:00:29.073Z,3.76
2018-02-18T20:02:59.956Z,3.74
2018-02-18T20:05:30.781Z,3.73
2018-02-18T20:08:02.149Z,3.74
2018-02-18T20:10:33.097Z,3.66
2018-02-18T20:13:04.109Z,3.63
2018-02-18T20:15:34.602Z,3.64
2018-02-18T20:18:05.245Z,3.68
2018-02-18T20:20:36.064Z,3.69
2018-02-18T20:23:07.010Z,3.68
2018-02-18T20:25:37.851Z,3.71
2018-02-18T20:28:08.456Z,3.70
2018-02-18T20:30:39.048Z,3.71
2018-02-18T20:33:10.093Z,3.71
2018-02-18T20:35:40.996Z,3.74
2018-02-18T20:38:11.340Z,3.74
2018-02-18T20:40:42.085Z,3.68
2018-02-18T20:43:12.653Z,3.59
2018-02-18T20:45:43.115Z,3.57
2018-02-18T20:48:13.784Z,3.58
2018-02-18T20:50:44.150Z,3.60
2018-02-18T20:53:15.116Z,3.60
2018-02-18T20:55:45.981Z,3.61
2018-02-18T20:58:16.870Z,3.61
2018-02-18T21:00:47.756Z,3.61
2018-02-18T21:03:19.102Z,3.57
2018-02-18T21:05:50.103Z,3.56
2018-02-18T21:08:21.176Z,3.56
2018-02-18T21:10:51.648Z,3.53
2018-02-18T21:13:22.188Z,3.50
2018-02-18T21:15:53.012Z,3.54
2018-02-18T21:18:23.568Z,3.41
2018-02-18T21:20:54.148Z,3.39
2018-02-18T21:23:25.396Z,3.40
2018-02-18T21:25:55.951Z,3.40
2018-02-18T21:28:26.831Z,3.43
2018-02-18T21:30:57.771Z,3.40
2018-02-18T21:33:29.164Z,3.39
2018-02-18T21:35:59.958Z,3.39
2018-02-18T21:38:30.500Z,3.39
2018-02-18T21:41:00.680Z,3.37
2018-02-18T21:43:35.224Z,3.40
2018-02-18T21:46:04.364Z,3.40
2018-02-18T21:48:33.616Z,3.40
2018-02-18T21:51:04.126Z,3.38
2018-02-18T21:53:35.003Z,3.40
2018-02-18T21:56:05.483Z,3.37
2018-02-18T21:58:36.110Z,3.37
2018-02-18T22:01:06.588Z,3.36
2018-02-18T22:03:37.127Z,3.33
2018-02-18T22:06:07.939Z,3.27
2018-02-18T22:08:38.804Z,3.26
2018-02-18T22:11:10.104Z,3.24
2018-02-18T22:13:40.996Z,3.18
2018-02-18T22:16:12.764Z,3.15
2018-02-18T22:18:42.514Z,3.13
2018-02-18T22:21:13.044Z,3.17
2018-02-18T22:23:43.575Z,3.07
2018-02-18T22:26:14.112Z,3.12
2018-02-18T22:28:44.959Z,3.16
2018-02-18T22:31:15.852Z,3.14
2018-02-18T22:33:47.120Z,3.13
2018-02-18T22:36:17.936Z,3.10
2018-02-18T22:38:48.780Z,3.06
2018-02-18T22:41:20.049Z,3.06
2018-02-18T22:43:51.471Z,3.06
2018-02-18T22:46:22.028Z,3.01
2018-02-18T22:48:53.008Z,3.08
2018-02-18T22:51:23.798Z,3.00
2018-02-18T22:53:55.097Z,3.09
2018-02-18T22:56:25.536Z,3.09
2018-02-18T22:58:56.120Z,3.10
2018-02-18T23:01:26.932Z,3.09
2018-02-18T23:03:57.847Z,3.10
2018-02-18T23:06:28.708Z,3.10
2018-02-18T23:09:00.096Z,3.11
2018-02-18T23:11:30.891Z,3.19
2018-02-18T23:14:01.820Z,3.09
2018-02-18T23:16:32.681Z,3.09
2018-02-18T23:19:03.123Z,3.09
2018-02-18T23:21:34.163Z,3.11
2018-02-18T23:24:05.076Z,3.11
2018-02-18T23:26:35.864Z,3.06
2018-02-18T23:29:06.772Z,3.05
2018-02-18T23:31:38.163Z,3.06
2018-02-18T23:34:08.688Z,3.09
2018-02-18T23:36:39.071Z,3.02
2018-02-18T23:39:09.932Z,3.05
2018-02-18T23:41:40.764Z,3.06
2018-02-18T23:44:12.376Z,3.06
2018-02-18T23:46:47.651Z,3.07
2018-02-18T23:49:16.763Z,3.06
2018-02-18T23:51:45.815Z,3.06
2018-02-18T23:54:15.969Z,3.08
2018-02-18T23:56:46.498Z,3.11
2018-02-18T23:59:17.379Z,3.12
